Time;durP1;ratioP1;P1;durP2;ratioP2;P2;SDS_P1;SDS_P2;PMS_P1;PMS_P2;Temp;Humidity;BMP_temperature;BMP_pressure;BME280_temperature;BME280_humidity;BME280_pressure;Samples;Min_cycle;Max_cycle;Signal;HPM_P1;HPM_P2
2022/05/31 00:00:40;;;;;;;5.05;4.65;;;;;;;8.44;91.85;99354.40;1628966;85;21036;-60
2022/05/31 00:03:08;;;;;;;4.65;4.20;;;;;;;8.45;91.88;99354.78;1639666;86;21520;-60
2022/05/31 00:05:36;;;;;;;;;;;;;;;8.46;91.87;99356.02;1639757;86;21076;-59
2022/05/31 00:08:03;;;;;;;5.70;5.20;;;;;;;8.47;91.92;99363.37;1635926;85;20163;-60
2022/05/31 00:10:30;;;;;;;5.75;5.15;;;;;;;8.49;92.02;99356.34;1629440;86;21186;-60
2022/05/31 00:12:56;;;;;;;6.47;5.83;;;;;;;8.51;92.05;99355.37;1653997;85;21420;-59
2022/05/31 00:15:24;;;;;;;5.60;5.10;;;;;;;8.53;92.08;99353.98;1671892;84;21071;-60
2022/05/31 00:17:51;;;;;;;6.95;5.03;;;;;;;8.55;92.06;99354.77;1672032;84;21494;-60
2022/05/31 00:20:19;;;;;;;5.30;4.85;;;;;;;8.56;92.04;99355.60;1662988;84;21079;-59
2022/05/31 00:22:47;;;;;;;5.35;4.85;;;;;;;8.58;92.08;99355.92;1663149;84;20995;-60
2022/05/31 00:25:15;;;;;;;6.28;5.67;;;;;;;8.58;92.04;99358.52;1669557;84;21462;-60
2022/05/31 00:27:42;;;;;;;7.47;5.20;;;;;;;8.58;92.05;99362.43;1667755;84;21783;-59
2022/05/31 00:30:11;;;;;;;6.20;5.58;;;;;;;8.55;92.05;99361.27;1665688;84;21029;-59
2022/05/31 00:32:43;;;;;;;6.87;5.95;;;;;;;8.55;92.10;99369.08;1664121;85;20968;-59
2022/05/31 00:35:15;;;;;;;7.03;5.53;;;;;;;8.54;92.16;99369.13;1660723;84;21077;-60
2022/05/31 00:40:33;;;;;;;6.70;6.05;;;;;;;8.58;92.37;99371.54;1644269;86;21210;-59
2022/05/31 00:43:08;;;;;;;6.08;5.00;;;;;;;8.63;92.25;99369.58;1640862;86;21621;-60
2022/05/31 00:45:49;;;;;;;6.20;5.60;;;;;;;8.66;92.21;99374.64;1647199;85;21095;-59
2022/05/31 00:48:23;;;;;;;7.58;6.60;;;;;;;8.65;92.07;99369.03;1647184;84;21059;-59
2022/05/31 00:51:00;;;;;;;9.98;6.62;;;;;;;8.64;92.09;99371.26;1647212;85;21099;-60
2022/05/31 00:53:32;;;;;;;9.40;6.92;;;;;;;8.63;92.10;99369.58;1656054;85;20999;-60
2022/05/31 00:56:02;;;;;;;7.92;6.70;;;;;;;8.64;92.19;99377.77;1648030;85;21099;-60
2022/05/31 00:58:36;;;;;;;5.85;5.35;;;;;;;8.67;92.30;99372.88;1618502;87;21106;-60
2022/05/31 01:01:07;;;;;;;8.60;6.58;;;;;;;8.67;92.33;99377.63;1649793;86;21590;-60
2022/05/31 01:03:38;;;;;;;7.08;6.47;;;;;;;8.65;92.33;99372.94;1640435;85;22005;-59
2022/05/31 01:06:06;;;;;;;7.00;6.22;;;;;;;8.64;92.26;99371.26;1621773;87;21091;-60
2022/05/31 01:08:36;;;;;;;8.63;6.78;;;;;;;8.60;92.17;99374.92;1646408;85;21110;-59
2022/05/31 01:11:05;;;;;;;7.80;7.00;;;;;;;8.62;92.33;99374.84;1648049;85;21533;-60
2022/05/31 01:13:32;;;;;;;7.20;6.47;;;;;;;8.60;92.26;99372.33;1647977;85;21107;-60
2022/05/31 01:16:06;;;;;;;7.47;6.67;;;;;;;8.58;92.30;99378.05;1646306;85;22291;-60
2022/05/31 01:18:33;;;;;;;6.97;6.28;;;;;;;8.56;92.27;99375.12;1631364;86;20985;-60
2022/05/31 01:21:00;;;;;;;5.90;5.30;;;;;;;8.53;92.29;99381.30;1647188;86;20993;-60
2022/05/31 01:23:31;;;;;;;6.00;5.40;;;;;;;8.53;92.45;99387.80;1645970;85;20988;-60
2022/05/31 01:26:05;;;;;;;7.55;6.75;;;;;;;8.57;92.57;99393.28;1612499;87;21569;-60
2022/05/31 01:29:16;;;;;;;7.45;6.75;;;;;;;8.61;92.68;99387.02;1648070;86;21085;-59
2022/05/31 01:32:02;;;;;;;8.18;7.00;;;;;;;8.64;92.72;99393.84;1649229;86;21051;-61
2022/05/31 01:34:37;;;;;;;7.30;6.50;;;;;;;8.62;92.64;99388.69;1653501;85;21158;-60
2022/05/31 01:37:05;;;;;;;6.20;5.53;;;;;;;8.64;92.73;99385.58;1650153;85;21606;-59
2022/05/31 01:39:52;;;;;;;5.90;4.80;;;;;;;8.65;92.69;99387.72;1663613;84;21151;-59
2022/05/31 01:42:35;;;;;;;6.87;6.12;;;;;;;8.63;92.67;99395.61;1688091;84;21118;-59
2022/05/31 01:45:26;;;;;;;6.20;5.62;;;;;;;8.59;92.76;99392.73;1678564;84;21005;-59
2022/05/31 01:48:01;;;;;;;6.42;5.75;;;;;;;8.56;92.87;99392.88;1686907;84;20976;-59
2022/05/31 01:50:27;;;;;;;7.45;5.28;;;;;;;8.57;92.93;99390.68;1676102;84;21503;-58
2022/05/31 01:52:56;;;;;;;6.73;5.47;;;;;;;8.56;92.78;99396.78;1679599;84;21585;-59
2022/05/31 01:55:23;;;;;;;8.38;4.78;;;;;;;8.56;92.55;99393.33;1682481;84;21776;-59
2022/05/31 01:57:54;;;;;;;5.87;5.05;;;;;;;8.50;92.43;99400.49;1678613;84;21016;-59
2022/05/31 02:00:21;;;;;;;4.83;4.30;;;;;;;8.45;92.37;99401.61;1677227;84;21068;-60
2022/05/31 02:02:51;;;;;;;6.95;5.08;;;;;;;8.37;92.23;99406.27;1650784;85;21108;-59
2022/05/31 02:05:19;;;;;;;5.72;5.12;;;;;;;8.30;92.44;99409.13;1685252;85;20993;-60
2022/05/31 02:08:03;;;;;;;4.90;4.40;;;;;;;8.21;92.74;99408.23;1680301;85;21107;-59
2022/05/31 02:10:32;;;;;;;5.30;4.12;;;;;;;8.17;92.82;99410.56;1679542;84;21091;-60
2022/05/31 02:12:59;;;;;;;4.47;4.08;;;;;;;8.16;93.00;99419.28;1680219;84;20952;-59
2022/05/31 02:15:26;;;;;;;4.25;3.85;;;;;;;8.13;93.02;99421.17;1682203;83;21115;-60
2022/05/31 02:17:53;;;;;;;4.58;4.17;;;;;;;8.20;92.82;99415.63;1674214;84;21735;-59
2022/05/31 02:20:20;;;;;;;4.33;3.80;;;;;;;8.24;92.71;99425.01;1672532;84;22455;-60
2022/05/31 02:22:46;;;;;;;3.95;3.65;;;;;;;8.25;92.72;99428.45;1672120;84;21183;-60
2022/05/31 02:25:15;;;;;;;3.98;3.67;;;;;;;8.25;92.68;99426.69;1682673;84;20942;-60
2022/05/31 02:27:42;;;;;;;8.40;4.10;;;;;;;8.27;92.64;99435.28;1676264;84;21118;-59
2022/05/31 02:30:10;;;;;;;6.37;4.10;;;;;;;8.26;92.80;99436.20;1671400;84;22342;-60
2022/05/31 02:32:37;;;;;;;4.58;3.75;;;;;;;8.26;92.95;99438.80;1680960;84;21094;-60
2022/05/31 02:35:05;;;;;;;4.25;3.85;;;;;;;8.28;92.89;99431.75;1675095;84;21487;-59
2022/05/31 02:37:32;;;;;;;3.95;3.62;;;;;;;8.32;92.79;99434.23;1682402;84;21642;-59
2022/05/31 02:39:59;;;;;;;3.02;2.60;;;;;;;8.34;92.80;99425.45;1681024;84;21115;-59
2022/05/31 02:42:26;;;;;;;3.92;2.92;;;;;;;8.35;92.76;99425.02;1679539;84;21597;-59
2022/05/31 02:44:53;;;;;;;2.90;2.70;;;;;;;8.32;92.70;99421.22;1678100;85;21119;-60
2022/05/31 02:47:20;;;;;;;5.50;3.33;;;;;;;8.35;92.79;99422.42;1677737;84;21099;-60
2022/05/31 02:49:47;;;;;;;3.27;3.00;;;;;;;8.36;92.76;99425.40;1638477;86;21119;-59
2022/05/31 02:52:16;;;;;;;3.65;3.33;;;;;;;8.36;92.74;99429.30;1638837;86;21098;-59
2022/05/31 02:54:43;;;;;;;3.65;3.35;;;;;;;8.39;92.88;99433.94;1640612;86;21699;-60
2022/05/31 02:57:10;;;;;;;3.30;3.00;;;;;;;8.42;92.89;99438.17;1669211;84;21045;-59
2022/05/31 02:59:37;;;;;;;3.52;3.22;;;;;;;8.41;92.81;99433.89;1645005;85;21013;-60
2022/05/31 03:02:04;;;;;;;4.03;3.50;;;;;;;8.42;92.81;99432.50;1676584;84;21593;-60
2022/05/31 03:04:32;;;;;;;3.77;3.45;;;;;;;8.45;92.82;99435.43;1669742;85;21001;-59
2022/05/31 03:07:02;;;;;;;4.40;4.00;;;;;;;8.45;92.72;99430.23;1672740;84;22693;-60
2022/05/31 03:09:27;;;;;;;3.30;3.00;;;;;;;8.46;92.80;99430.64;1675079;84;21090;-59
2022/05/31 03:12:07;;;;;;;3.87;3.47;;;;;;;8.47;92.81;99431.02;1675237;84;21049;-59
2022/05/31 03:14:42;;;;;;;3.20;2.90;;;;;;;8.52;92.86;99431.66;1672324;85;21208;-60
2022/05/31 03:17:17;;;;;;;3.52;3.22;;;;;;;8.58;92.85;99441.80;1682436;84;21648;-59
2022/05/31 03:19:52;;;;;;;3.77;3.00;;;;;;;8.61;92.88;99441.66;1674475;84;21569;-59
2022/05/31 03:22:23;;;;;;;4.92;2.90;;;;;;;8.65;92.80;99439.77;1664543;84;22172;-59
2022/05/31 03:24:55;;;;;;;2.60;2.40;;;;;;;8.65;92.65;99439.30;1677850;84;20986;-59
2022/05/31 03:27:22;;;;;;;4.80;3.20;;;;;;;8.65;92.75;99447.11;1675617;84;21153;-60
2022/05/31 03:29:52;;;;;;;4.05;3.22;;;;;;;8.64;92.80;99438.92;1675327;84;27053;-59
2022/05/31 03:32:20;;;;;;;3.20;2.60;;;;;;;8.64;92.63;99445.44;1677296;85;21061;-59
2022/05/31 03:34:47;;;;;;;2.30;2.20;;;;;;;8.61;92.71;99444.27;1675527;84;21286;-59
2022/05/31 03:37:14;;;;;;;4.05;3.12;;;;;;;8.61;92.53;99444.27;1684824;84;21016;-59
2022/05/31 03:39:40;;;;;;;3.80;3.17;;;;;;;8.64;92.60;99437.63;1683274;84;21069;-59
2022/05/31 03:42:07;;;;;;;4.13;3.73;;;;;;;8.70;92.58;99441.25;1682968;84;21492;-59
2022/05/31 03:44:34;;;;;;;3.45;3.15;;;;;;;8.77;92.71;99438.41;1684098;83;21571;-59
2022/05/31 03:47:05;;;;;;;4.73;2.63;;;;;;;8.85;92.66;99433.67;1684292;84;21465;-59
2022/05/31 03:49:33;;;;;;;4.35;3.10;;;;;;;8.93;92.61;99435.48;1670033;84;21080;-59
2022/05/31 03:52:00;;;;;;;5.33;2.30;;;;;;;9.03;92.69;99439.37;1673780;84;20992;-60
2022/05/31 03:54:28;;;;;;;2.42;2.22;;;;;;;9.16;92.74;99446.18;1683644;84;21072;-59
2022/05/31 03:56:55;;;;;;;3.85;3.00;;;;;;;9.21;92.62;99443.34;1667645;84;21645;-58
2022/05/31 03:59:21;;;;;;;2.83;2.30;;;;;;;9.22;92.43;99448.96;1669059;84;21082;-59
2022/05/31 04:01:48;;;;;;;2.40;2.20;;;;;;;9.21;92.46;99449.86;1684278;84;21087;-59
2022/05/31 04:04:14;;;;;;;2.33;2.13;;;;;;;9.22;92.34;99455.47;1663003;84;21004;-59
2022/05/31 04:06:42;;;;;;;3.30;3.00;;;;;;;9.16;92.16;99449.63;1676311;83;21124;-59
2022/05/31 04:09:08;;;;;;;4.60;2.77;;;;;;;9.20;92.24;99447.72;1680289;84;21057;-58
2022/05/31 04:11:35;;;;;;;2.53;2.27;;;;;;;9.21;92.21;99461.11;1687485;84;21364;-59
2022/05/31 04:14:02;;;;;;;3.58;2.72;;;;;;;9.21;92.19;99453.77;1643650;85;21545;-59
2022/05/31 04:16:29;;;;;;;4.08;2.72;;;;;;;9.30;92.45;99463.75;1673336;85;21068;-59
2022/05/31 04:18:55;;;;;;;2.80;2.52;;;;;;;9.34;92.43;99473.13;1683769;84;21057;-60
2022/05/31 04:21:22;;;;;;;2.42;2.22;;;;;;;9.37;92.38;99472.98;1644048;85;21019;-60
2022/05/31 04:24:02;;;;;;;3.27;2.63;;;;;;;9.41;92.35;99472.79;1671693;84;21067;-60
2022/05/31 04:26:33;;;;;;;4.15;2.30;;;;;;;9.46;92.52;99472.55;1667879;84;21238;-59
2022/05/31 04:28:59;;;;;;;5.67;2.42;;;;;;;9.64;92.79;99473.00;1665114;85;21102;-61
2022/05/31 04:31:27;;;;;;;3.00;2.20;;;;;;;9.73;92.52;99474.80;1678044;84;21054;-60
2022/05/31 04:33:54;;;;;;;2.42;2.22;;;;;;;9.85;92.62;99475.50;1664546;84;21794;-59
2022/05/31 04:36:22;;;;;;;2.02;1.82;;;;;;;9.98;92.62;99472.69;1671983;84;21462;-60
2022/05/31 04:38:49;;;;;;;3.33;2.30;;;;;;;10.08;92.49;99470.02;1665097;84;20996;-59
2022/05/31 04:41:20;;;;;;;2.52;2.33;;;;;;;10.04;91.94;99472.38;1683309;84;21478;-59
2022/05/31 04:43:47;;;;;;;2.02;1.92;;;;;;;10.00;91.81;99470.86;1681165;84;21680;-60
2022/05/31 04:46:21;;;;;;;6.17;2.25;;;;;;;9.98;91.79;99473.16;1645868;85;21020;-59
2022/05/31 04:48:48;;;;;;;2.33;2.12;;;;;;;9.99;91.78;99471.75;1641686;85;21927;-59
2022/05/31 04:51:16;;;;;;;2.90;2.62;;;;;;;9.98;91.91;99476.59;1646675;85;21119;-59
2022/05/31 04:53:43;;;;;;;3.05;2.60;;;;;;;10.06;92.20;99469.25;1640264;86;20965;-61
2022/05/31 04:56:12;;;;;;;;;;;;;;;10.13;92.21;99467.63;1642138;86;21142;-59
2022/05/31 04:58:39;;;;;;;4.10;2.70;;;;;;;10.16;92.02;99467.48;1622625;87;20496;-59
2022/05/31 05:01:06;;;;;;;2.55;2.35;;;;;;;10.18;92.12;99478.69;1644083;86;21620;-59
2022/05/31 05:03:35;;;;;;;2.50;2.25;;;;;;;10.20;92.19;99469.88;1642430;86;20941;-60
2022/05/31 05:06:05;;;;;;;2.50;2.30;;;;;;;10.30;91.96;99474.19;1635090;86;21088;-59
2022/05/31 05:08:34;;;;;;;2.50;2.30;;;;;;;10.37;91.93;99480.80;1611233;87;21628;-59
2022/05/31 05:11:04;;;;;;;3.58;2.45;;;;;;;10.51;92.40;99469.20;1640280;86;21079;-59
2022/05/31 05:13:31;;;;;;;2.30;2.05;;;;;;;10.66;92.32;99470.64;1632771;86;21365;-60
2022/05/31 05:16:00;;;;;;;2.20;2.00;;;;;;;10.81;92.08;99471.60;1637652;86;21106;-60
2022/05/31 05:18:28;;;;;;;3.42;2.35;;;;;;;11.00;92.03;99464.95;1645873;85;21108;-59
2022/05/31 05:20:55;;;;;;;3.45;2.40;;;;;;;11.15;92.44;99466.77;1648745;85;21258;-60
2022/05/31 05:23:22;;;;;;;4.45;2.40;;;;;;;11.31;92.25;99464.98;1649497;85;21032;-59
2022/05/31 05:25:53;;;;;;;2.90;2.70;;;;;;;11.53;92.29;99461.20;1647474;85;21160;-59
2022/05/31 05:31:09;;;;;;;2.98;2.67;;;;;;;12.24;92.45;99456.31;1652795;85;21104;-60
2022/05/31 05:33:35;;;;;;;2.47;2.27;;;;;;;12.63;91.91;99450.97;1653378;85;21875;-60
2022/05/31 05:36:02;;;;;;;2.60;2.40;;;;;;;13.25;91.87;99445.87;1621614;87;21156;-60
2022/05/31 05:38:28;;;;;;;2.35;2.15;;;;;;;13.72;91.75;99450.75;1648203;86;21068;-60
2022/05/31 05:40:55;;;;;;;5.47;2.08;;;;;;;14.91;93.30;99449.82;1656176;84;21428;-60
2022/05/31 05:43:22;;;;;;;1.67;1.57;;;;;;;15.93;92.04;99450.50;1678299;84;21000;-60
2022/05/31 05:45:48;;;;;;;1.92;1.57;;;;;;;16.59;91.22;99448.19;1681363;84;22358;-60
2022/05/31 05:48:15;;;;;;;2.33;1.47;;;;;;;17.41;89.47;99448.81;1682209;84;21097;-60
2022/05/31 05:50:42;;;;;;;2.20;1.55;;;;;;;17.99;87.70;99438.83;1680806;84;21595;-60
2022/05/31 05:53:10;;;;;;;3.02;1.60;;;;;;;18.49;88.49;99433.77;1687545;84;21823;-61
2022/05/31 05:55:39;;;;;;;2.30;1.85;;;;;;;19.11;87.22;99437.78;1678484;84;21132;-60
2022/05/31 05:58:11;;;;;;;1.70;1.45;;;;;;;19.78;88.44;99435.80;1677613;84;21149;-61
2022/05/31 06:00:45;;;;;;;2.22;1.60;;;;;;;20.67;88.38;99436.94;1684700;84;21059;-61
2022/05/31 06:03:20;;;;;;;1.60;1.50;;;;;;;21.13;86.78;99444.50;1677623;84;21097;-61
2022/05/31 06:05:48;;;;;;;4.45;1.67;;;;;;;21.02;85.13;99444.69;1685043;84;21029;-61
2022/05/31 06:08:29;;;;;;;1.85;1.35;;;;;;;20.78;84.78;99445.19;1683353;84;21030;-61
2022/05/31 06:11:09;;;;;;;2.37;1.65;;;;;;;21.36;86.65;99446.77;1685607;84;21107;-62
2022/05/31 06:13:48;;;;;;;1.85;1.27;;;;;;;21.53;85.30;99447.31;1681680;84;22372;-61
2022/05/31 06:16:17;;;;;;;2.70;1.40;;;;;;;22.10;86.02;99447.89;1641874;86;23183;-60
2022/05/31 06:18:55;;;;;;;1.95;1.30;;;;;;;22.55;84.33;99452.76;1627135;87;21139;-60
2022/05/31 06:21:44;;;;;;;1.32;1.12;;;;;;;22.50;83.25;99454.55;1646085;85;21215;-60
2022/05/31 06:24:11;;;;;;;3.15;1.47;;;;;;;22.46;82.29;99454.53;1649595;86;21129;-60
2022/05/31 06:26:39;;;;;;;2.70;1.67;;;;;;;21.91;80.45;99457.35;1646103;85;22565;-60
2022/05/31 06:29:06;;;;;;;2.00;1.12;;;;;;;21.74;82.99;99455.52;1645769;86;21123;-60
2022/05/31 06:31:32;;;;;;;1.77;1.40;;;;;;;22.22;83.29;99449.84;1617591;86;21648;-60
2022/05/31 06:33:59;;;;;;;4.45;1.32;;;;;;;22.09;81.78;99460.00;1656462;85;21080;-60
2022/05/31 06:36:25;;;;;;;;;;;;;;;22.06;82.43;99462.46;1632552;86;21967;-60
2022/05/31 06:38:53;;;;;;;1.82;1.40;;;;;;;21.63;80.28;99459.23;1643673;86;20271;-60
2022/05/31 06:41:19;;;;;;;1.62;1.25;;;;;;;21.90;82.37;99466.29;1641190;86;21244;-61
2022/05/31 06:43:46;;;;;;;;;;;;;;;21.61;79.63;99465.17;1652253;84;21076;-60
2022/05/31 06:46:13;;;;;;;1.57;1.20;;;;;;;21.23;78.60;99469.20;1615433;86;20249;-62
2022/05/31 06:48:40;;;;;;;2.30;1.35;;;;;;;20.77;78.70;99470.89;1652412;85;21625;-62
2022/05/31 06:51:13;;;;;;;3.02;1.40;;;;;;;20.29;79.17;99471.78;1650776;85;21071;-62
2022/05/31 06:59:13;;;;;;;3.37;1.53;;;;;;;19.95;80.33;99481.14;1709721;83;20938;-62
2022/05/31 07:01:40;;;;;;;4.15;1.62;;;;;;;20.52;80.74;99479.43;1701866;83;21056;-62
2022/05/31 07:04:07;;;;;;;2.40;1.50;;;;;;;20.73;80.21;99480.13;1708168;82;20998;-61
2022/05/31 07:06:34;;;;;;;6.75;1.57;;;;;;;21.08;79.20;99481.27;1710057;82;21050;-62
2022/05/31 07:09:01;;;;;;;1.77;1.40;;;;;;;21.20;78.92;99478.78;1702353;82;21025;-62
2022/05/31 07:11:28;;;;;;;3.20;1.50;;;;;;;20.96;77.33;99478.45;1711425;83;21558;-61
2022/05/31 07:13:55;;;;;;;3.58;1.80;;;;;;;20.32;76.42;99478.13;1671851;84;21085;-61
2022/05/31 07:16:23;;;;;;;5.85;1.82;;;;;;;20.08;77.87;99480.36;1681121;84;21170;-61
2022/05/31 07:18:50;;;;;;;5.75;1.72;;;;;;;20.27;77.57;99480.36;1692963;84;21159;-62
2022/05/31 07:21:17;;;;;;;3.00;1.82;;;;;;;20.32;77.60;99487.41;1692600;84;20969;-62
2022/05/31 07:23:45;;;;;;;4.25;1.90;;;;;;;20.82;78.52;99478.92;1712002;83;21115;-62
2022/05/31 07:26:13;;;;;;;2.55;1.55;;;;;;;20.98;77.82;99480.48;1706810;83;21087;-62
2022/05/31 07:28:40;;;;;;;2.42;1.70;;;;;;;20.84;76.55;99483.57;1706980;82;21037;-61
2022/05/31 07:31:08;;;;;;;1.95;1.47;;;;;;;20.60;76.22;99479.59;1710778;82;21116;-61
2022/05/31 07:33:35;;;;;;;1.60;1.50;;;;;;;20.67;77.60;99482.03;1703432;83;21074;-62
2022/05/31 07:36:07;;;;;;;1.90;1.55;;;;;;;20.84;76.53;99484.90;1675251;84;21013;-62
2022/05/31 07:38:35;;;;;;;2.58;1.60;;;;;;;20.32;75.39;99486.08;1719637;82;21159;-61
2022/05/31 07:41:02;;;;;;;6.42;1.90;;;;;;;20.10;76.20;99488.52;1709848;82;20955;-61
2022/05/31 07:43:30;;;;;;;3.33;1.60;;;;;;;19.96;75.83;99498.70;1706415;83;21070;-61
2022/05/31 07:46:10;;;;;;;;;;;;;;;20.03;75.98;99498.52;1709952;83;21093;-60
2022/05/31 07:48:37;;;;;;;2.33;1.10;;;;;;;19.63;74.56;99504.20;1708580;82;20233;-61
2022/05/31 07:51:07;;;;;;;2.37;1.37;;;;;;;19.25;75.32;99507.55;1675577;85;21069;-62
2022/05/31 07:53:35;;;;;;;1.90;1.17;;;;;;;19.14;74.98;99506.32;1704710;82;21029;-61
2022/05/31 07:56:10;;;;;;;7.83;1.37;;;;;;;18.81;73.84;99506.91;1707354;83;21099;-61
2022/05/31 07:58:37;;;;;;;5.65;2.08;;;;;;;18.46;74.75;99515.98;1711626;83;20950;-62
2022/05/31 08:01:08;;;;;;;2.10;1.65;;;;;;;18.55;74.72;99512.56;1702310;83;21256;-61
2022/05/31 08:03:37;;;;;;;5.92;1.62;;;;;;;18.30;74.14;99508.97;1709814;82;21195;-61
2022/05/31 08:06:08;;;;;;;3.02;1.40;;;;;;;18.03;73.44;99522.14;1712026;83;21039;-61
2022/05/31 08:08:36;;;;;;;1.52;1.30;;;;;;;17.52;72.85;99518.73;1700131;83;21359;-61
2022/05/31 08:11:16;;;;;;;2.67;1.72;;;;;;;17.52;74.45;99520.06;1717363;82;21519;-62
2022/05/31 08:13:45;;;;;;;1.80;1.20;;;;;;;17.96;74.75;99514.38;1707457;83;20993;-61
2022/05/31 08:16:16;;;;;;;2.22;1.07;;;;;;;17.71;72.76;99515.97;1708436;83;21031;-61
2022/05/31 08:18:45;;;;;;;1.40;0.90;;;;;;;17.33;72.44;99519.83;1709920;83;20927;-61
2022/05/31 08:21:27;;;;;;;1.92;1.05;;;;;;;17.10;72.77;99526.42;1709296;83;22035;-61
2022/05/31 08:23:58;;;;;;;1.45;0.85;;;;;;;17.15;73.37;99524.75;1710502;83;21677;-61
2022/05/31 08:26:26;;;;;;;1.30;0.80;;;;;;;17.20;73.19;99515.52;1710861;83;20935;-61
2022/05/31 08:28:53;;;;;;;1.47;0.90;;;;;;;17.66;73.68;99517.16;1706524;83;21041;-60
2022/05/31 08:31:33;;;;;;;6.03;0.82;;;;;;;18.27;74.18;99517.15;1714491;83;21051;-61
2022/05/31 08:34:00;;;;;;;1.10;0.62;;;;;;;18.88;73.84;99513.37;1708081;83;22129;-60
2022/05/31 08:36:27;;;;;;;1.02;0.60;;;;;;;19.44;72.56;99502.33;1707062;83;20938;-61
2022/05/31 08:38:54;;;;;;;1.20;0.78;;;;;;;19.24;71.42;99505.89;1714686;82;21099;-61
2022/05/31 08:41:30;;;;;;;2.33;0.75;;;;;;;19.00;71.70;99499.08;1717334;82;21092;-62
2022/05/31 08:44:14;;;;;;;1.37;0.65;;;;;;;19.10;71.91;99504.89;1716525;82;21138;-60
2022/05/31 08:46:58;;;;;;;6.42;0.70;;;;;;;19.18;71.96;99510.36;1661260;85;21951;-61
2022/05/31 08:52:55;;;;;;;1.87;0.70;;;;;;;19.38;71.66;99504.66;1616601;86;21165;-59
2022/05/31 08:58:22;;;;;;;1.85;0.70;;;;;;;19.48;71.18;99503.38;1629289;86;21741;-60
2022/05/31 09:00:53;;;;;;;1.05;0.68;;;;;;;19.65;71.14;99509.34;1631177;86;21621;-60
2022/05/31 09:03:41;;;;;;;1.02;0.60;;;;;;;19.84;70.21;99509.42;1632420;86;21254;-62
2022/05/31 09:06:16;;;;;;;2.27;0.68;;;;;;;20.02;70.43;99518.02;1629921;86;21242;-60
2022/05/31 09:08:50;;;;;;;0.85;0.53;;;;;;;20.26;70.31;99503.88;1622088;86;21167;-61
2022/05/31 09:11:26;;;;;;;0.95;0.50;;;;;;;20.27;69.72;99508.19;1627959;86;21244;-61
2022/05/31 09:14:13;;;;;;;1.32;0.50;;;;;;;19.82;68.60;99509.20;1593596;88;22342;-61
2022/05/31 09:17:02;;;;;;;1.87;0.60;;;;;;;19.31;68.70;99517.60;1592763;88;21180;-61
2022/05/31 09:19:36;;;;;;;0.75;0.45;;;;;;;19.08;68.74;99513.47;1603555;88;21702;-62
2022/05/31 09:22:07;;;;;;;1.12;0.50;;;;;;;19.07;69.19;99514.42;1601744;88;21050;-62
2022/05/31 09:24:41;;;;;;;1.37;0.50;;;;;;;19.01;68.29;99515.30;1619027;86;20943;-62
2022/05/31 09:27:16;;;;;;;1.27;0.40;;;;;;;18.83;68.42;99518.69;1621955;87;21165;-62
2022/05/31 09:30:12;;;;;;;0.90;0.50;;;;;;;18.62;67.90;99513.36;1621812;87;21681;-62
2022/05/31 09:33:06;;;;;;;1.25;0.53;;;;;;;18.31;67.94;99517.23;1671147;82;21037;-62
2022/05/31 09:35:50;;;;;;;3.25;0.60;;;;;;;18.16;68.19;99526.44;1711965;82;21160;-62
2022/05/31 09:38:43;;;;;;;5.42;1.05;;;;;;;18.24;68.41;99526.66;1669774;84;21065;-61
2022/05/31 09:41:41;;;;;;;2.30;0.40;;;;;;;18.72;69.54;99520.88;1652589;85;21134;-61
2022/05/31 09:44:35;;;;;;;29.55;21.10;;;;;;;19.14;68.31;99514.27;1660490;85;21099;-61
2022/05/31 09:47:20;;;;;;;5.78;4.25;;;;;;;19.08;67.26;99518.77;1661516;85;21616;-61
2022/05/31 09:49:50;;;;;;;2.47;0.90;;;;;;;19.11;67.17;99516.69;1662769;85;21016;-61
2022/05/31 09:52:42;;;;;;;1.30;0.40;;;;;;;19.09;66.77;99524.39;1662021;85;21765;-61
2022/05/31 09:58:31;;;;;;;1.20;0.50;;;;;;;19.26;66.23;99519.80;1656972;85;21586;-61
2022/05/31 10:01:27;;;;;;;0.47;0.30;;;;;;;19.41;66.46;99521.13;1660651;85;21099;-61
2022/05/31 10:04:01;;;;;;;5.60;0.60;;;;;;;19.54;65.77;99525.34;1662731;85;20996;-62
2022/05/31 10:06:30;;;;;;;1.47;0.70;;;;;;;19.50;66.08;99522.63;1663015;85;21182;-61
2022/05/31 10:09:16;;;;;;;1.00;0.60;;;;;;;19.41;65.82;99524.27;1660459;85;21281;-61
2022/05/31 10:11:49;;;;;;;4.05;0.78;;;;;;;19.33;65.77;99524.94;1661795;85;20936;-61
2022/05/31 10:14:26;;;;;;;3.75;0.62;;;;;;;19.35;65.54;99523.45;1659534;85;20942;-60
2022/05/31 10:16:54;;;;;;;1.75;0.40;;;;;;;19.28;65.32;99525.81;1661277;85;21117;-60
2022/05/31 10:19:28;;;;;;;1.70;0.40;;;;;;;19.20;65.17;99525.63;1661859;85;21547;-61
2022/05/31 10:21:56;;;;;;;1.60;0.50;;;;;;;19.24;65.42;99532.36;1660527;85;21113;-62
2022/05/31 10:24:27;;;;;;;3.62;0.78;;;;;;;19.42;65.26;99530.74;1668104;84;21089;-62
2022/05/31 10:27:13;;;;;;;0.80;0.60;;;;;;;19.57;65.65;99533.02;1700066;83;21175;-62
2022/05/31 10:29:53;;;;;;;0.57;0.40;;;;;;;19.52;64.92;99531.25;1718332;83;21024;-61
2022/05/31 10:32:37;;;;;;;0.98;0.40;;;;;;;19.40;64.47;99539.30;1705054;83;20994;-61
2022/05/31 10:35:21;;;;;;;2.15;0.53;;;;;;;19.50;65.15;99538.02;1706101;81;21225;-61
2022/05/31 10:37:59;;;;;;;18.90;1.02;;;;;;;19.67;64.69;99529.47;1699018;83;21570;-62
2022/05/31 10:40:37;;;;;;;2.70;0.50;;;;;;;19.80;64.90;99530.55;1698732;83;21100;-60
2022/05/31 10:43:37;;;;;;;1.75;0.50;;;;;;;20.00;64.72;99530.59;1689742;83;21258;-61
2022/05/31 10:46:33;;;;;;;0.50;0.40;;;;;;;20.19;64.46;99528.42;1688115;83;21255;-60
2022/05/31 10:49:18;;;;;;;1.15;0.53;;;;;;;20.22;63.92;99526.36;1726814;81;21295;-61
2022/05/31 10:52:03;;;;;;;0.23;0.23;;;;;;;20.15;63.85;99530.52;1695030;84;20945;-60
2022/05/31 10:54:56;;;;;;;2.27;0.57;;;;;;;20.29;63.42;99530.11;1691286;83;21098;-61
2022/05/31 10:57:53;;;;;;;0.95;0.33;;;;;;;20.45;63.57;99527.40;1693112;83;21628;-60
2022/05/31 11:00:31;;;;;;;0.80;0.40;;;;;;;20.72;63.40;99531.50;1729907;81;21003;-62
2022/05/31 11:03:09;;;;;;;15.43;4.50;;;;;;;20.89;63.08;99533.08;1692614;83;21120;-62
2022/05/31 11:05:46;;;;;;;4.25;2.42;;;;;;;21.02;63.01;99536.27;1730060;81;21056;-62
2022/05/31 11:11:45;;;;;;;1.37;0.70;;;;;;;20.92;62.84;99543.41;1721245;81;21090;-62
2022/05/31 11:14:39;;;;;;;20.05;1.87;;;;;;;21.07;62.21;99543.31;1718332;81;22547;-62
2022/05/31 11:17:51;;;;;;;1.35;0.40;;;;;;;21.05;62.21;99545.27;1708148;83;21505;-62
2022/05/31 11:20:23;;;;;;;1.90;0.65;;;;;;;21.00;61.82;99543.53;1709120;82;21165;-62
2022/05/31 11:23:15;;;;;;;2.80;0.53;;;;;;;20.91;61.78;99537.76;1696910;83;21087;-63
2022/05/31 11:26:14;;;;;;;7.22;0.78;;;;;;;20.82;61.54;99543.93;1709538;83;21060;-61
2022/05/31 11:29:23;;;;;;;1.62;0.65;;;;;;;20.67;61.37;99552.33;1709554;83;20937;-61
2022/05/31 11:31:59;;;;;;;2.72;0.90;;;;;;;19.77;54.81;99557.28;1711581;83;21469;-60
2022/05/31 11:35:02;;;;;;;1.32;0.53;;;;;;;18.08;57.76;99551.67;1711295;83;21012;-61
2022/05/31 11:37:47;;;;;;;3.65;0.62;;;;;;;17.13;57.39;99560.47;1705074;83;21088;-61
2022/05/31 11:40:32;;;;;;;1.17;0.70;;;;;;;16.00;58.37;99559.70;1712354;83;21810;-61
2022/05/31 11:43:28;;;;;;;1.42;0.93;;;;;;;15.66;59.48;99562.09;1711795;83;21072;-61
2022/05/31 11:46:17;;;;;;;1.77;0.85;;;;;;;15.72;60.30;99564.31;1709503;83;21515;-61
2022/05/31 11:49:04;;;;;;;3.20;0.95;;;;;;;16.05;60.79;99557.58;1683847;83;21101;-61
2022/05/31 11:51:48;;;;;;;0.93;0.60;;;;;;;16.30;60.90;99564.54;1708536;83;21239;-63
2022/05/31 11:54:26;;;;;;;6.97;0.98;;;;;;;16.14;59.80;99565.29;1703722;83;21543;-62
2022/05/31 11:57:37;;;;;;;0.80;0.55;;;;;;;16.01;60.32;99567.95;1709291;83;22329;-63
2022/05/31 12:00:08;;;;;;;1.75;0.82;;;;;;;15.96;60.24;99566.96;1713332;83;21153;-61
2022/05/31 12:02:50;;;;;;;2.72;0.75;;;;;;;15.66;60.43;99572.61;1707749;83;21060;-61
2022/05/31 12:05:29;;;;;;;5.80;1.37;;;;;;;15.50;60.94;99578.58;1709292;83;20973;-61
2022/05/31 12:08:19;;;;;;;1.67;0.47;;;;;;;15.54;61.53;99587.93;1710361;83;20976;-61
2022/05/31 12:10:53;;;;;;;1.22;0.47;;;;;;;15.28;61.08;99591.90;1712500;83;21037;-61
2022/05/31 12:13:22;;;;;;;1.10;0.80;;;;;;;14.98;61.00;99593.06;1707508;83;21197;-61
2022/05/31 12:15:52;;;;;;;1.52;0.70;;;;;;;14.86;61.72;99593.86;1711872;83;20867;-61
2022/05/31 12:18:55;;;;;;;1.55;1.00;;;;;;;15.02;62.47;99592.38;1705316;83;21656;-61
2022/05/31 12:21:35;;;;;;;1.45;0.50;;;;;;;15.44;62.78;99595.16;1709619;83;21164;-61
2022/05/31 12:24:16;;;;;;;3.98;0.70;;;;;;;15.91;62.45;99594.57;1712680;83;21063;-61
2022/05/31 12:26:52;;;;;;;4.72;0.75;;;;;;;16.24;62.56;99586.87;1699701;83;21135;-62
2022/05/31 12:29:24;;;;;;;6.12;0.90;;;;;;;16.55;62.88;99587.25;1705082;82;21059;-61